createdAt,value
2023-05-10T00:03:10.522Z,12.35
2023-05-10T00:08:14.649Z,12.34
2023-05-10T00:13:17.549Z,12.35
2023-05-10T00:18:20.379Z,12.36
2023-05-10T00:23:24.484Z,12.35
2023-05-10T00:28:29.080Z,12.33
2023-05-10T00:33:32.998Z,12.33
2023-05-10T00:38:37.180Z,12.34
2023-05-10T00:43:39.914Z,12.31
2023-05-10T00:48:43.036Z,12.30
2023-05-10T00:53:47.977Z,12.31
2023-05-10T00:58:50.925Z,12.33
2023-05-10T01:03:54.385Z,12.30
2023-05-10T01:08:58.673Z,12.27
2023-05-10T01:14:01.513Z,12.25
2023-05-10T01:19:07.899Z,12.22
2023-05-10T01:24:43.897Z,12.19
2023-05-10T01:30:16.133Z,12.18
2023-05-10T01:35:28.611Z,12.16
2023-05-10T01:40:37.965Z,12.14
2023-05-10T01:45:47.413Z,12.17
2023-05-10T01:50:53.652Z,12.15
2023-05-10T01:55:58.149Z,12.14
2023-05-10T02:01:05.109Z,12.15
2023-05-10T02:06:11.158Z,12.12
2023-05-10T02:11:15.307Z,12.09
2023-05-10T02:16:20.390Z,12.08
2023-05-10T02:21:26.041Z,12.10
2023-05-10T02:26:29.792Z,12.10
2023-05-10T02:31:34.185Z,12.13
2023-05-10T02:36:40.240Z,12.14
2023-05-10T02:41:44.020Z,12.16
2023-05-10T02:46:47.819Z,12.12
2023-05-10T02:51:55.740Z,12.16
2023-05-10T02:57:01.463Z,12.13
2023-05-10T03:02:05.607Z,12.12
2023-05-10T03:07:10.330Z,12.10
2023-05-10T03:12:21.026Z,12.11
2023-05-10T03:17:31.343Z,12.12
2023-05-10T03:22:40.278Z,12.11
2023-05-10T03:27:45.627Z,12.09
2023-05-10T03:32:48.720Z,12.11
2023-05-10T03:37:55.061Z,12.10
2023-05-10T03:42:57.885Z,12.08
2023-05-10T03:48:00.877Z,12.08
2023-05-10T03:53:05.156Z,12.08
2023-05-10T03:58:12.605Z,12.12
2023-05-10T04:03:16.211Z,12.11
2023-05-10T04:08:20.719Z,12.13
2023-05-10T04:26:49.562Z,12.00
2023-05-10T04:31:52.802Z,12.01
2023-05-10T04:36:55.638Z,12.01
2023-05-10T04:41:59.786Z,12.06
2023-05-10T04:47:03.182Z,12.13
2023-05-10T04:52:06.495Z,12.17
2023-05-10T04:57:13.286Z,12.27
2023-05-10T05:02:16.550Z,12.29
2023-05-10T05:07:21.324Z,12.29
2023-05-10T05:12:25.717Z,12.25
2023-05-10T05:17:28.583Z,12.31
2023-05-10T05:22:32.687Z,12.24
2023-05-10T05:27:36.878Z,12.32
2023-05-10T05:32:39.666Z,12.37
2023-05-10T05:37:42.603Z,12.51
2023-05-10T05:42:46.653Z,12.66
2023-05-10T05:47:50.745Z,12.80
2023-05-10T05:52:53.698Z,12.88
2023-05-10T05:57:58.743Z,13.10
2023-05-10T06:03:02.752Z,13.21
2023-05-10T06:08:06.231Z,13.38
2023-05-10T06:13:11.802Z,13.66
2023-05-10T06:18:17.443Z,13.82
2023-05-10T06:23:20.174Z,13.73
2023-05-10T06:28:27.737Z,14.07
2023-05-10T06:33:34.887Z,14.08
2023-05-10T06:38:37.814Z,14.17
2023-05-10T06:43:42.387Z,13.98
2023-05-10T06:48:45.772Z,13.75
2023-05-10T06:53:48.574Z,13.86
2023-05-10T06:58:52.847Z,14.22
2023-05-10T07:03:55.588Z,14.29
2023-05-10T07:08:58.422Z,14.10
2023-05-10T07:14:04.882Z,14.04
2023-05-10T07:19:08.093Z,14.06
2023-05-10T07:24:12.478Z,14.02
2023-05-10T07:29:16.619Z,14.00
2023-05-10T07:34:19.843Z,14.06
2023-05-10T07:39:27.542Z,13.84
2023-05-10T07:44:32.851Z,13.93
2023-05-10T07:49:36.571Z,14.04
2023-05-10T07:54:41.806Z,14.08
2023-05-10T07:59:49.497Z,14.24
2023-05-10T08:04:52.552Z,14.56
2023-05-10T08:09:55.304Z,14.44
2023-05-10T08:14:59.401Z,14.65
2023-05-10T08:20:02.140Z,14.62
2023-05-10T08:25:07.703Z,15.21
2023-05-10T08:30:13.033Z,15.40
2023-05-10T08:35:18.230Z,15.54
2023-05-10T08:40:21.985Z,16.14
2023-05-10T08:45:27.927Z,17.11
2023-05-10T08:50:32.280Z,17.06
2023-05-10T08:55:37.684Z,17.41
2023-05-10T09:00:44.868Z,17.60
2023-05-10T09:05:48.933Z,17.34
2023-05-10T09:10:54.146Z,16.91
2023-05-10T09:16:02.116Z,16.49
2023-05-10T09:21:12.074Z,16.23
2023-05-10T09:26:17.060Z,16.72
2023-05-10T09:31:22.027Z,17.10
2023-05-10T09:36:25.894Z,16.92
2023-05-10T09:41:32.038Z,16.72
2023-05-10T09:46:40.350Z,17.02
2023-05-10T09:51:43.967Z,16.90
2023-05-10T09:56:46.770Z,17.73
2023-05-10T10:01:53.385Z,17.23
2023-05-10T10:07:05.192Z,16.73
2023-05-10T10:12:10.575Z,16.26
2023-05-10T10:17:15.038Z,15.43
2023-05-10T10:22:18.926Z,15.23
2023-05-10T10:27:27.125Z,15.05
2023-05-10T10:32:46.863Z,14.97
2023-05-10T10:37:52.909Z,15.23
2023-05-10T10:42:59.362Z,15.46
2023-05-10T10:48:25.461Z,15.40
2023-05-10T10:53:30.105Z,15.47
2023-05-10T10:58:33.653Z,16.61
2023-05-10T11:03:39.819Z,17.93
2023-05-10T11:08:48.706Z,18.04
2023-05-10T11:13:51.850Z,18.36
2023-05-10T11:19:05.194Z,18.31
2023-05-10T11:24:16.531Z,18.71
2023-05-10T11:29:19.781Z,18.91
2023-05-10T11:34:31.187Z,18.96
2023-05-10T11:39:36.567Z,19.30
2023-05-10T11:44:40.078Z,18.89
2023-05-10T11:49:48.033Z,19.38
2023-05-10T11:54:53.910Z,19.90
2023-05-10T11:59:59.101Z,19.66
2023-05-10T12:05:05.495Z,19.11
2023-05-10T12:10:12.277Z,19.95
2023-05-10T12:15:20.882Z,20.23
2023-05-10T12:20:30.455Z,19.97
2023-05-10T12:25:36.883Z,19.63
2023-05-10T12:30:42.340Z,19.16
2023-05-10T12:35:54.052Z,19.22
2023-05-10T12:40:58.121Z,19.95
2023-05-10T12:46:01.047Z,20.27
2023-05-10T12:51:06.290Z,20.24
2023-05-10T12:56:10.150Z,19.00
2023-05-10T13:01:14.588Z,18.92
2023-05-10T13:06:21.541Z,16.96
2023-05-10T13:11:24.860Z,16.83
2023-05-10T13:16:28.140Z,16.66
2023-05-10T13:21:33.596Z,16.55
2023-05-10T13:26:40.782Z,16.42
2023-05-10T13:31:43.819Z,16.09
2023-05-10T13:36:48.452Z,16.25
2023-05-10T13:41:51.822Z,16.06
2023-05-10T13:46:56.300Z,16.23
2023-05-10T13:52:00.433Z,17.16
2023-05-10T13:57:04.193Z,17.26
2023-05-10T14:02:07.330Z,16.96
2023-05-10T14:07:12.845Z,17.01
2023-05-10T14:12:17.857Z,16.79
2023-05-10T14:17:23.175Z,16.80
2023-05-10T14:22:28.294Z,16.75
2023-05-10T14:27:31.322Z,16.93
2023-05-10T14:32:34.867Z,16.94
2023-05-10T14:37:40.189Z,16.78
2023-05-10T14:42:45.237Z,16.74
2023-05-10T14:47:48.128Z,16.44
2023-05-10T14:52:52.434Z,16.41
2023-05-10T14:57:55.408Z,16.45
2023-05-10T15:02:59.443Z,16.54
2023-05-10T15:08:03.913Z,16.43
2023-05-10T15:13:08.389Z,16.60
2023-05-10T15:18:11.340Z,16.53
2023-05-10T15:23:15.467Z,16.80
2023-05-10T15:28:20.547Z,16.71
2023-05-10T15:33:24.282Z,17.18
2023-05-10T15:38:29.231Z,17.28
2023-05-10T15:43:33.120Z,17.15
2023-05-10T15:48:37.005Z,17.16
2023-05-10T15:53:52.825Z,16.89
2023-05-10T15:59:03.936Z,16.76
2023-05-10T16:04:06.844Z,16.85
2023-05-10T16:09:11.561Z,17.16
2023-05-10T16:14:14.386Z,16.98
2023-05-10T16:19:17.335Z,17.14
2023-05-10T16:24:22.278Z,16.54
2023-05-10T16:29:25.081Z,16.40
2023-05-10T16:34:27.975Z,16.53
2023-05-10T16:39:32.374Z,16.63
2023-05-10T16:44:35.994Z,16.46
2023-05-10T16:49:39.469Z,16.58
2023-05-10T16:54:46.507Z,16.19
2023-05-10T16:59:49.327Z,16.23
2023-05-10T17:04:56.090Z,16.64
2023-05-10T17:10:00.296Z,17.08
2023-05-10T17:15:05.432Z,20.04
2023-05-10T17:20:10.310Z,22.61
2023-05-10T17:25:15.908Z,21.98
2023-05-10T17:30:24.258Z,21.82
2023-05-10T17:35:27.149Z,20.59
2023-05-10T17:40:31.247Z,19.72
2023-05-10T17:45:34.412Z,19.58
2023-05-10T17:50:39.536Z,19.43
2023-05-10T17:55:44.444Z,18.94
2023-05-10T18:00:47.765Z,18.19
2023-05-10T18:05:51.428Z,17.94
2023-05-10T18:10:55.698Z,17.49
2023-05-10T18:16:06.155Z,17.09
2023-05-10T18:21:08.902Z,16.63
2023-05-10T18:26:13.128Z,16.34
2023-05-10T18:31:16.376Z,16.08
2023-05-10T18:36:20.860Z,15.92
2023-05-10T18:41:31.641Z,15.80
2023-05-10T18:46:35.779Z,15.62
2023-05-10T18:51:38.568Z,15.35
2023-05-10T18:56:45.077Z,15.20
2023-05-10T19:01:49.583Z,15.06
2023-05-10T19:06:53.938Z,14.87
2023-05-10T19:11:58.422Z,14.60
2023-05-10T19:17:01.653Z,14.47
2023-05-10T19:22:04.516Z,14.29
2023-05-10T19:27:09.106Z,14.09
2023-05-10T19:32:12.064Z,13.91
2023-05-10T19:37:15.494Z,13.77
2023-05-10T19:42:20.232Z,13.65
2023-05-10T19:47:23.134Z,13.54
2023-05-10T19:52:26.518Z,13.47
2023-05-10T19:57:31.505Z,13.38
2023-05-10T20:02:38.462Z,13.26
2023-05-10T20:07:43.180Z,13.18
2023-05-10T20:12:51.608Z,13.16
2023-05-10T20:17:54.453Z,13.10
2023-05-10T20:22:58.640Z,13.09
2023-05-10T20:28:03.614Z,13.05
2023-05-10T20:33:07.007Z,12.98
2023-05-10T20:38:10.544Z,12.97
2023-05-10T20:43:14.766Z,12.90
2023-05-10T20:48:17.834Z,12.79
2023-05-10T20:53:22.238Z,12.61
2023-05-10T20:58:27.742Z,12.50
2023-05-10T21:03:30.901Z,12.41
2023-05-10T21:08:34.567Z,12.35
2023-05-10T21:13:39.027Z,12.23
2023-05-10T21:18:41.911Z,12.13
2023-05-10T21:23:47.108Z,11.99
2023-05-10T21:28:51.501Z,11.87
2023-05-10T21:33:54.256Z,11.79
2023-05-10T21:38:57.293Z,11.64
2023-05-10T21:44:01.347Z,11.65
2023-05-10T21:49:04.159Z,11.57
2023-05-10T21:54:07.328Z,11.33
2023-05-10T21:59:11.569Z,11.38
2023-05-10T22:04:23.400Z,11.21
2023-05-10T22:09:26.085Z,11.18
2023-05-10T22:14:30.285Z,11.08
2023-05-10T22:19:33.028Z,11.03
2023-05-10T22:24:35.869Z,10.95
2023-05-10T22:29:39.908Z,10.95
2023-05-10T22:34:43.600Z,10.79
2023-05-10T22:39:46.536Z,10.79
2023-05-10T22:44:50.663Z,10.78
2023-05-10T22:49:55.194Z,10.77
2023-05-10T22:54:58.199Z,10.78
2023-05-10T23:00:02.641Z,10.83
2023-05-10T23:05:07.993Z,10.91
2023-05-10T23:10:11.462Z,10.94
2023-05-10T23:15:15.807Z,10.96
2023-05-10T23:20:19.399Z,11.03
2023-05-10T23:25:22.711Z,11.12
2023-05-10T23:30:27.402Z,11.14
2023-05-10T23:35:30.155Z,11.14
2023-05-10T23:40:32.846Z,11.19
2023-05-10T23:45:37.327Z,11.16
2023-05-10T23:50:45.284Z,11.15
2023-05-10T23:55:47.984Z,11.17
